createdAt,value
2023-01-28T00:00:19.982Z,85.60
2023-01-28T00:02:21.434Z,85.58
2023-01-28T00:04:22.824Z,85.25
2023-01-28T00:06:24.272Z,84.56
2023-01-28T00:08:25.650Z,84.70
2023-01-28T00:10:27.069Z,85.50
2023-01-28T00:12:29.658Z,85.39
2023-01-28T00:14:31.082Z,85.15
2023-01-28T00:16:32.895Z,85.31
2023-01-28T00:18:34.701Z,85.36
2023-01-28T00:20:36.279Z,85.10
2023-01-28T00:22:37.641Z,85.86
2023-01-28T00:24:38.997Z,85.42
2023-01-28T00:26:40.332Z,85.50
2023-01-28T00:28:42.650Z,85.38
2023-01-28T00:30:44.061Z,84.56
2023-01-28T00:32:45.462Z,84.61
2023-01-28T00:34:46.896Z,85.59
2023-01-28T00:39:27.029Z,85.08
2023-01-28T00:41:29.687Z,84.95
2023-01-28T00:43:31.084Z,84.43
2023-01-28T00:45:32.434Z,84.65
2023-01-28T00:47:33.777Z,84.93
2023-01-28T00:49:35.219Z,85.08
2023-01-28T00:51:36.990Z,84.95
2023-01-28T00:53:39.754Z,84.44
2023-01-28T00:55:41.128Z,83.95
2023-01-28T00:57:42.498Z,85.20
2023-01-28T00:59:44.561Z,85.05
2023-01-28T01:01:46.049Z,85.07
2023-01-28T01:03:48.346Z,85.06
2023-01-28T01:05:49.703Z,84.11
2023-01-28T01:07:51.084Z,84.40
2023-01-28T01:09:52.456Z,84.06
2023-01-28T01:11:53.808Z,84.30
2023-01-28T01:13:59.626Z,84.67
2023-01-28T01:16:06.675Z,84.04
2023-01-28T01:18:08.036Z,84.21
2023-01-28T01:20:15.308Z,83.97
2023-01-28T01:22:16.727Z,84.76
2023-01-28T01:24:18.216Z,85.26
2023-01-28T01:26:20.409Z,84.97
2023-01-28T01:28:22.629Z,85.40
2023-01-28T01:30:24.736Z,85.04
2023-01-28T01:32:29.707Z,83.73
2023-01-28T01:34:31.155Z,84.45
2023-01-28T01:36:32.607Z,84.70
2023-01-28T01:38:34.073Z,84.64
2023-01-28T01:40:37.126Z,83.47
2023-01-28T01:42:38.517Z,83.03
2023-01-28T01:45:00.011Z,83.19
2023-01-28T01:47:01.470Z,83.12
2023-01-28T01:49:19.445Z,83.72
2023-01-28T01:51:26.314Z,82.72
2023-01-28T01:53:29.577Z,83.99
2023-01-28T01:55:38.130Z,83.44
2023-01-28T01:57:40.568Z,83.07
2023-01-28T01:59:43.478Z,83.02
2023-01-28T02:01:48.325Z,82.52
2023-01-28T02:04:22.912Z,82.96
2023-01-28T02:06:25.101Z,83.69
2023-01-28T02:08:27.901Z,82.28
2023-01-28T02:10:29.333Z,83.31
2023-01-28T02:12:36.766Z,82.06
2023-01-28T02:14:46.390Z,83.56
2023-01-28T02:16:47.912Z,83.94
2023-01-28T02:18:49.353Z,82.48
2023-01-28T02:21:24.378Z,83.30
2023-01-28T02:24:00.710Z,82.50
2023-01-28T02:26:23.760Z,82.83
2023-01-28T02:28:37.204Z,83.18
2023-01-28T02:30:50.644Z,83.22
2023-01-28T02:32:59.222Z,83.21
2023-01-28T02:35:03.354Z,83.46
2023-01-28T02:37:12.842Z,83.44
2023-01-28T02:39:20.419Z,82.32
2023-01-28T02:41:28.250Z,82.74
2023-01-28T02:43:40.853Z,82.63
2023-01-28T02:46:00.613Z,82.76
2023-01-28T02:48:01.965Z,83.48
2023-01-28T02:50:09.595Z,83.19
2023-01-28T02:52:18.645Z,82.37
2023-01-28T02:54:35.908Z,82.73
2023-01-28T02:56:45.505Z,82.49
2023-01-28T02:59:30.874Z,82.31
2023-01-28T03:01:39.424Z,83.05
2023-01-28T03:03:58.622Z,81.17
2023-01-28T03:06:07.909Z,82.05
2023-01-28T03:08:29.350Z,81.66
2023-01-28T03:10:31.004Z,82.19
2023-01-28T03:12:53.951Z,82.93
2023-01-28T03:15:26.702Z,82.51
2023-01-28T03:17:54.622Z,82.77
2023-01-28T03:20:14.948Z,83.78
2023-01-28T03:22:35.369Z,82.50
2023-01-28T03:25:06.857Z,82.37
2023-01-28T03:27:38.301Z,81.83
2023-01-28T03:30:00.529Z,82.42
2023-01-28T03:32:22.543Z,82.42
2023-01-28T03:34:42.842Z,83.29
2023-01-28T03:36:53.203Z,83.25
2023-01-28T03:38:54.650Z,82.72
2023-01-28T03:41:00.329Z,82.02
2023-01-28T03:43:01.763Z,82.71
2023-01-28T03:45:05.284Z,81.82
2023-01-28T03:47:08.833Z,82.73
2023-01-28T03:49:10.218Z,82.75
2023-01-28T03:51:12.075Z,82.89
2023-01-28T03:53:16.956Z,83.17
2023-01-28T03:55:18.528Z,82.94
2023-01-28T03:57:25.727Z,82.25
2023-01-28T03:59:26.992Z,83.39
2023-01-28T04:01:28.362Z,83.37
2023-01-28T04:03:29.758Z,82.95
2023-01-28T04:05:31.235Z,82.53
2023-01-28T04:07:33.610Z,82.69
2023-01-28T04:09:35.944Z,82.90
2023-01-28T04:11:37.292Z,81.63
2023-01-28T04:13:38.676Z,82.29
2023-01-28T04:15:40.037Z,82.82
2023-01-28T04:17:46.164Z,82.85
2023-01-28T04:19:47.537Z,82.55
2023-01-28T04:21:49.897Z,82.50
2023-01-28T04:23:51.306Z,83.53
2023-01-28T04:25:52.800Z,82.92
2023-01-28T04:27:54.335Z,82.96
2023-01-28T04:29:55.721Z,82.49
2023-01-28T04:31:57.197Z,81.76
2023-01-28T04:33:58.677Z,82.61
2023-01-28T04:36:00.075Z,82.55
2023-01-28T04:38:01.585Z,82.32
2023-01-28T04:40:03.189Z,82.36
2023-01-28T04:42:04.784Z,82.09
2023-01-28T04:44:06.286Z,82.96
2023-01-28T04:46:07.807Z,82.55
2023-01-28T04:48:09.276Z,83.10
2023-01-28T04:50:10.680Z,82.25
2023-01-28T04:52:12.065Z,82.27
2023-01-28T04:54:13.417Z,82.73
2023-01-28T04:56:14.866Z,81.67
2023-01-28T04:58:16.264Z,80.61
2023-01-28T05:00:18.215Z,81.06
2023-01-28T05:02:19.717Z,80.29
2023-01-28T05:04:21.268Z,81.28
2023-01-28T05:06:22.635Z,80.72
2023-01-28T05:08:24.028Z,81.75
2023-01-28T05:10:27.173Z,82.40
2023-01-28T05:12:29.635Z,81.51
2023-01-28T05:14:30.986Z,81.45
2023-01-28T05:16:34.060Z,83.02
2023-01-28T05:18:35.440Z,82.14
2023-01-28T05:20:36.811Z,82.38
2023-01-28T05:22:38.491Z,82.52
2023-01-28T05:24:39.883Z,82.70
2023-01-28T05:26:41.492Z,83.04
2023-01-28T05:28:42.877Z,82.81
2023-01-28T05:30:44.321Z,80.85
2023-01-28T05:32:46.133Z,82.00
2023-01-28T05:34:47.709Z,81.83
2023-01-28T05:36:49.072Z,81.35
2023-01-28T05:38:50.589Z,80.53
2023-01-28T05:40:51.955Z,81.58
2023-01-28T05:42:53.385Z,81.79
2023-01-28T05:44:54.765Z,80.94
2023-01-28T05:46:56.168Z,82.39
2023-01-28T05:48:57.581Z,82.12
2023-01-28T05:51:00.019Z,81.95
2023-01-28T05:53:01.473Z,81.98
2023-01-28T05:55:03.061Z,81.07
2023-01-28T05:57:04.517Z,81.49
2023-01-28T05:59:05.871Z,80.66
2023-01-28T06:01:07.263Z,79.97
2023-01-28T06:03:08.908Z,80.26
2023-01-28T06:05:10.732Z,80.95
2023-01-28T06:07:13.268Z,80.97
2023-01-28T06:09:14.663Z,81.55
2023-01-28T06:11:16.488Z,79.74
2023-01-28T06:13:18.497Z,80.04
2023-01-28T06:15:19.972Z,79.21
2023-01-28T06:17:21.357Z,79.52
2023-01-28T06:19:22.725Z,79.62
2023-01-28T06:21:24.132Z,78.80
2023-01-28T06:23:25.495Z,78.24
2023-01-28T06:25:27.181Z,79.96
2023-01-28T06:27:28.725Z,80.16
2023-01-28T06:29:30.271Z,79.60
2023-01-28T06:31:31.648Z,79.28
2023-01-28T06:33:33.253Z,80.76
2023-01-28T06:35:35.771Z,78.55
2023-01-28T06:37:37.160Z,79.15
2023-01-28T06:39:38.500Z,78.71
2023-01-28T06:41:39.915Z,80.06
2023-01-28T06:43:41.257Z,80.07
2023-01-28T06:45:42.653Z,78.79
2023-01-28T06:47:44.011Z,79.86
2023-01-28T06:49:45.523Z,80.24
2023-01-28T06:51:46.876Z,80.34
2023-01-28T06:53:48.282Z,80.05
2023-01-28T06:55:49.894Z,79.65
2023-01-28T06:57:51.258Z,79.35
2023-01-28T06:59:52.625Z,79.71
2023-01-28T07:01:54.024Z,78.42
2023-01-28T07:03:56.845Z,79.06
2023-01-28T07:05:58.227Z,79.98
2023-01-28T07:07:59.629Z,77.95
2023-01-28T07:10:01.174Z,77.47
2023-01-28T07:12:05.198Z,78.91
2023-01-28T07:14:06.577Z,79.93
2023-01-28T07:16:08.030Z,80.59
2023-01-28T07:18:09.416Z,79.71
2023-01-28T07:20:13.728Z,80.33
2023-01-28T07:22:15.364Z,80.08
2023-01-28T07:24:16.850Z,78.92
2023-01-28T07:26:20.018Z,79.01
2023-01-28T07:28:21.583Z,79.66
2023-01-28T07:30:24.105Z,79.23
2023-01-28T07:32:29.483Z,79.44
2023-01-28T07:34:30.865Z,79.71
2023-01-28T07:36:32.220Z,79.64
2023-01-28T07:38:33.738Z,79.51
2023-01-28T07:40:35.172Z,79.71
2023-01-28T07:42:36.535Z,78.87
2023-01-28T07:44:38.598Z,78.63
2023-01-28T07:46:39.963Z,79.50
2023-01-28T07:48:41.329Z,79.55
2023-01-28T07:50:42.859Z,78.85
2023-01-28T07:52:45.754Z,79.16
2023-01-28T07:54:47.153Z,78.14
2023-01-28T07:56:48.568Z,77.91
2023-01-28T07:58:50.762Z,78.48
2023-01-28T08:00:57.367Z,78.69
2023-01-28T08:03:07.780Z,76.52
2023-01-28T08:05:09.460Z,77.47
2023-01-28T08:07:10.851Z,77.88
2023-01-28T08:09:12.252Z,77.96
2023-01-28T08:11:13.622Z,75.88
2023-01-28T08:13:16.521Z,77.38
2023-01-28T08:15:17.919Z,77.12
2023-01-28T08:17:19.306Z,76.32
2023-01-28T08:19:21.781Z,76.85
2023-01-28T08:21:23.265Z,77.23
2023-01-28T08:23:26.857Z,77.08
2023-01-28T08:25:28.261Z,76.71
2023-01-28T08:27:29.641Z,76.45
2023-01-28T08:29:31.027Z,77.63
2023-01-28T08:31:36.176Z,77.55
2023-01-28T08:33:37.763Z,77.77
2023-01-28T08:35:39.816Z,78.25
2023-01-28T08:37:41.185Z,78.05
2023-01-28T08:39:44.300Z,77.65
2023-01-28T08:41:46.925Z,76.44
2023-01-28T08:43:48.803Z,73.81
2023-01-28T08:45:50.519Z,75.30
2023-01-28T08:47:54.530Z,75.70
2023-01-28T08:49:55.872Z,77.17
2023-01-28T08:51:57.274Z,75.76
2023-01-28T08:53:58.606Z,76.32
2023-01-28T08:56:00.363Z,76.19
2023-01-28T08:58:03.357Z,76.41
2023-01-28T09:00:06.131Z,75.52
2023-01-28T09:02:10.585Z,75.89
2023-01-28T09:04:15.597Z,76.35
2023-01-28T09:06:17.134Z,75.56
2023-01-28T09:08:18.521Z,76.95
2023-01-28T09:10:22.533Z,75.05
2023-01-28T09:12:24.109Z,76.64
2023-01-28T09:14:25.544Z,76.24
2023-01-28T09:16:27.224Z,73.93
2023-01-28T09:18:28.604Z,74.88
2023-01-28T09:20:30.286Z,74.47
2023-01-28T09:22:33.001Z,75.07
2023-01-28T09:24:34.378Z,75.80
2023-01-28T09:26:35.744Z,75.75
2023-01-28T09:28:38.438Z,76.24
2023-01-28T09:30:40.082Z,76.13
2023-01-28T09:32:41.577Z,76.62
2023-01-28T09:34:44.405Z,75.91
2023-01-28T09:36:46.051Z,75.59
2023-01-28T09:38:47.432Z,74.73
2023-01-28T09:40:48.876Z,75.35
2023-01-28T09:43:05.076Z,75.44
2023-01-28T09:45:09.810Z,75.22
2023-01-28T09:47:46.351Z,75.16
2023-01-28T09:49:51.563Z,74.62
2023-01-28T09:51:55.748Z,75.41
2023-01-28T09:54:03.564Z,75.15
2023-01-28T09:56:12.526Z,75.17
2023-01-28T09:58:17.691Z,74.62
2023-01-28T10:00:23.000Z,73.65
2023-01-28T10:02:36.664Z,72.37
2023-01-28T10:04:59.188Z,72.90
2023-01-28T10:07:27.734Z,74.27
2023-01-28T10:09:45.544Z,74.65
2023-01-28T10:12:26.285Z,72.61
2023-01-28T10:14:45.174Z,74.34
2023-01-28T10:17:07.168Z,74.65
2023-01-28T10:19:30.117Z,74.32
2023-01-28T10:21:39.086Z,71.55
2023-01-28T10:23:58.394Z,73.39
2023-01-28T10:26:03.695Z,74.09
2023-01-28T10:28:14.860Z,73.06
2023-01-28T10:30:27.978Z,73.52
2023-01-28T10:32:34.704Z,70.91
2023-01-28T10:34:37.240Z,72.73
2023-01-28T10:36:38.982Z,72.21
2023-01-28T10:38:40.464Z,70.56
2023-01-28T10:40:43.333Z,71.62
2023-01-28T10:42:45.714Z,72.19
2023-01-28T10:44:47.855Z,72.08
2023-01-28T10:46:50.616Z,72.41
2023-01-28T10:48:57.427Z,72.99
2023-01-28T10:51:02.482Z,71.62
2023-01-28T10:53:05.852Z,72.06
2023-01-28T10:55:14.483Z,71.44
2023-01-28T10:57:18.920Z,71.33
2023-01-28T10:59:27.699Z,71.97
2023-01-28T11:01:47.691Z,71.00
2023-01-28T11:03:55.282Z,70.37
2023-01-28T11:05:58.504Z,71.85
2023-01-28T11:08:19.721Z,71.60
2023-01-28T11:10:33.796Z,70.02
2023-01-28T11:12:35.219Z,69.92
2023-01-28T11:14:36.654Z,70.58
2023-01-28T11:16:40.143Z,69.52
2023-01-28T11:18:48.039Z,71.73
2023-01-28T11:20:53.426Z,70.60
2023-01-28T11:22:55.544Z,71.37
2023-01-28T11:24:57.092Z,70.73
2023-01-28T11:27:09.453Z,70.72
2023-01-28T11:29:30.642Z,70.79
2023-01-28T11:31:41.699Z,71.02
2023-01-28T11:34:00.439Z,71.28
2023-01-28T11:36:13.765Z,71.52
2023-01-28T11:38:19.416Z,72.34
2023-01-28T11:40:21.921Z,71.01
2023-01-28T11:42:24.104Z,69.46
2023-01-28T11:44:27.072Z,69.92
2023-01-28T11:46:53.385Z,69.73
2023-01-28T11:49:26.986Z,70.52
2023-01-28T11:51:47.403Z,69.61
2023-01-28T11:54:05.211Z,70.54
2023-01-28T11:56:16.961Z,70.80
2023-01-28T11:58:40.625Z,70.83
2023-01-28T12:01:02.048Z,70.26
2023-01-28T12:03:27.977Z,71.42
2023-01-28T12:06:06.858Z,69.98
2023-01-28T12:08:23.147Z,71.61
2023-01-28T12:10:52.206Z,71.27
2023-01-28T12:13:05.653Z,72.67
2023-01-28T12:15:46.832Z,72.65
2023-01-28T12:18:29.660Z,71.99
2023-01-28T12:20:47.446Z,71.44
2023-01-28T12:22:54.656Z,70.15
2023-01-28T12:25:14.792Z,71.31
2023-01-28T12:27:38.599Z,72.25
2023-01-28T12:29:54.837Z,71.39
2023-01-28T12:32:08.463Z,71.17
2023-01-28T12:34:21.792Z,69.83
2023-01-28T12:36:47.729Z,71.26
2023-01-28T12:39:02.065Z,71.88
2023-01-28T12:41:22.170Z,70.86
2023-01-28T12:43:23.545Z,71.07
2023-01-28T12:45:33.469Z,71.83
2023-01-28T12:47:39.421Z,72.36
2023-01-28T12:49:53.798Z,71.50
2023-01-28T12:51:55.411Z,71.15
2023-01-28T12:54:15.110Z,71.43
2023-01-28T12:56:32.006Z,71.00
2023-01-28T12:58:43.199Z,71.24
2023-01-28T13:00:54.808Z,70.59
2023-01-28T13:03:18.423Z,70.79
2023-01-28T13:05:31.214Z,70.29
2023-01-28T13:07:39.362Z,69.85
2023-01-28T13:09:49.929Z,69.89
2023-01-28T13:11:54.339Z,68.98
2023-01-28T13:13:55.790Z,68.85
2023-01-28T13:15:57.762Z,70.25
2023-01-28T13:18:02.502Z,69.00
2023-01-28T13:20:15.638Z,68.00
2023-01-28T13:22:35.078Z,66.18
2023-01-28T13:24:36.519Z,68.12
2023-01-28T13:26:40.995Z,68.38
2023-01-28T13:28:42.525Z,67.31
2023-01-28T13:30:49.842Z,67.30
2023-01-28T13:33:03.287Z,66.81
2023-01-28T13:35:07.980Z,67.09
2023-01-28T13:37:32.739Z,67.36
2023-01-28T13:39:35.784Z,65.51
2023-01-28T13:41:48.858Z,65.87
2023-01-28T13:43:50.314Z,66.41
2023-01-28T13:46:03.639Z,66.61
2023-01-28T13:48:30.855Z,66.52
2023-01-28T13:50:39.357Z,66.68
2023-01-28T13:52:49.181Z,65.55
2023-01-28T13:54:50.526Z,64.33
2023-01-28T13:57:01.265Z,64.96
2023-01-28T13:59:21.165Z,65.70
2023-01-28T14:01:43.714Z,65.38
2023-01-28T14:04:15.652Z,66.65
2023-01-28T14:06:24.004Z,65.47
2023-01-28T14:08:54.237Z,66.08
2023-01-28T14:11:24.542Z,65.61
2023-01-28T14:13:25.885Z,65.87
2023-01-28T14:15:49.238Z,64.72
2023-01-28T14:17:56.305Z,65.90
2023-01-28T14:19:59.720Z,66.01
2023-01-28T14:22:09.771Z,66.57
2023-01-28T14:24:16.785Z,67.30
2023-01-28T14:26:37.040Z,67.57
2023-01-28T14:28:56.263Z,66.80
2023-01-28T14:31:09.118Z,67.62
2023-01-28T14:33:12.187Z,67.67
2023-01-28T14:35:20.163Z,68.30
2023-01-28T14:37:25.863Z,68.47
2023-01-28T14:39:33.506Z,68.24
2023-01-28T14:41:35.178Z,67.36
2023-01-28T14:43:38.001Z,67.68
2023-01-28T14:45:48.649Z,68.19
2023-01-28T14:48:00.311Z,68.91
2023-01-28T14:50:18.300Z,69.05
2023-01-28T14:52:42.813Z,68.67
2023-01-28T14:55:19.588Z,68.54
2023-01-28T14:57:44.886Z,69.05
2023-01-28T14:59:51.219Z,68.32
2023-01-28T15:01:56.755Z,69.54
2023-01-28T15:03:58.319Z,68.47
2023-01-28T15:06:04.136Z,68.48
2023-01-28T15:08:05.915Z,69.25
2023-01-28T15:10:16.528Z,69.32
2023-01-28T15:12:18.368Z,68.94
2023-01-28T15:14:26.817Z,69.37
2023-01-28T15:16:31.320Z,68.71
2023-01-28T15:18:42.337Z,70.04
2023-01-28T15:20:46.197Z,71.37
2023-01-28T15:22:47.765Z,71.27
2023-01-28T15:24:49.247Z,70.41
2023-01-28T15:26:51.115Z,69.15
2023-01-28T15:28:55.550Z,70.30
2023-01-28T15:30:59.469Z,70.88
2023-01-28T15:33:14.209Z,70.46
2023-01-28T15:35:16.214Z,70.97
2023-01-28T15:37:18.931Z,70.83
2023-01-28T15:39:22.711Z,70.73
2023-01-28T15:41:28.977Z,71.34
2023-01-28T15:43:35.182Z,71.83
2023-01-28T15:45:36.642Z,72.32
2023-01-28T15:47:38.193Z,72.27
2023-01-28T15:49:45.228Z,71.71
2023-01-28T15:51:53.539Z,72.17
2023-01-28T15:54:06.758Z,73.01
2023-01-28T15:56:11.461Z,72.34
2023-01-28T15:58:33.430Z,71.98
2023-01-28T16:00:34.970Z,72.57
2023-01-28T16:02:43.684Z,73.24
2023-01-28T16:04:56.934Z,73.46
2023-01-28T16:07:04.345Z,74.17
2023-01-28T16:09:15.682Z,74.61
2023-01-28T16:11:33.674Z,75.29
2023-01-28T16:13:36.645Z,75.51
2023-01-28T16:15:39.646Z,75.70
2023-01-28T16:17:47.227Z,77.01
2023-01-28T16:19:58.795Z,77.05
2023-01-28T16:22:01.470Z,76.95
2023-01-28T16:24:07.553Z,77.13
2023-01-28T16:26:24.282Z,77.02
2023-01-28T16:28:25.948Z,77.17
2023-01-28T16:30:28.177Z,77.53
2023-01-28T16:32:35.622Z,77.22
2023-01-28T16:34:37.272Z,77.48
2023-01-28T16:36:39.534Z,77.50
2023-01-28T16:38:41.063Z,77.14
2023-01-28T16:40:46.873Z,77.75
2023-01-28T16:42:48.999Z,78.71
2023-01-28T16:44:50.509Z,78.90
2023-01-28T16:46:51.998Z,78.86
2023-01-28T16:48:53.935Z,78.08
2023-01-28T16:50:55.512Z,79.10
2023-01-28T16:52:58.030Z,78.91
2023-01-28T16:54:59.457Z,78.65
2023-01-28T16:57:01.021Z,78.92
2023-01-28T16:59:02.589Z,79.98
2023-01-28T17:01:04.104Z,79.53
2023-01-28T17:03:06.029Z,79.30
2023-01-28T17:05:08.112Z,79.79
2023-01-28T17:07:09.558Z,79.77
2023-01-28T17:09:14.669Z,80.00
2023-01-28T17:11:16.087Z,80.20
2023-01-28T17:13:17.452Z,80.97
2023-01-28T17:15:19.372Z,81.14
2023-01-28T17:17:21.453Z,81.08
2023-01-28T17:19:22.844Z,80.48
2023-01-28T17:21:24.290Z,80.75
2023-01-28T17:23:26.197Z,80.84
2023-01-28T17:25:27.555Z,80.56
2023-01-28T17:27:28.921Z,80.91
2023-01-28T17:29:30.259Z,81.36
2023-01-28T17:31:31.938Z,81.35
2023-01-28T17:33:33.737Z,81.68
2023-01-28T17:35:37.235Z,81.75
2023-01-28T17:37:38.948Z,81.62
2023-01-28T17:39:40.400Z,81.51
2023-01-28T17:41:42.087Z,82.06
2023-01-28T17:43:44.166Z,81.29
2023-01-28T17:45:48.500Z,81.59
2023-01-28T17:47:50.325Z,82.32
2023-01-28T17:49:52.274Z,83.26
2023-01-28T17:51:54.077Z,82.71
2023-01-28T17:53:56.231Z,82.95
2023-01-28T17:55:57.817Z,83.19
2023-01-28T17:57:59.311Z,83.45
2023-01-28T18:00:01.219Z,83.17
2023-01-28T18:02:03.156Z,83.60
2023-01-28T18:04:04.766Z,83.48
2023-01-28T18:06:07.261Z,83.21
2023-01-28T18:08:09.416Z,83.34
2023-01-28T18:10:12.623Z,82.83
2023-01-28T18:12:15.876Z,83.17
2023-01-28T18:14:17.232Z,83.76
2023-01-28T18:18:46.917Z,83.61
2023-01-28T18:20:59.772Z,83.73
2023-01-28T18:23:01.858Z,82.78
2023-01-28T18:25:03.923Z,82.82
2023-01-28T18:27:05.696Z,83.59
2023-01-28T18:29:07.183Z,83.02
2023-01-28T18:31:08.694Z,82.87
2023-01-28T18:33:10.155Z,82.58
2023-01-28T18:35:12.516Z,83.95
2023-01-28T18:37:13.992Z,84.06
2023-01-28T18:39:22.356Z,83.92
2023-01-28T18:41:23.727Z,83.05
2023-01-28T18:43:26.504Z,83.55
2023-01-28T18:45:28.333Z,83.66
2023-01-28T18:47:29.777Z,83.62
2023-01-28T18:49:31.647Z,83.68
2023-01-28T18:51:33.129Z,83.40
2023-01-28T18:53:34.859Z,83.18
2023-01-28T18:55:36.201Z,83.31
2023-01-28T18:57:38.878Z,83.54
2023-01-28T18:59:40.233Z,83.38
2023-01-28T19:01:43.675Z,83.18
2023-01-28T19:03:45.025Z,83.38
2023-01-28T19:05:46.779Z,83.29
2023-01-28T19:07:48.182Z,83.56
2023-01-28T19:09:50.247Z,83.67
2023-01-28T19:11:51.790Z,83.65
2023-01-28T19:13:53.539Z,83.90
2023-01-28T19:15:55.955Z,83.36
2023-01-28T19:17:57.684Z,83.59
2023-01-28T19:19:59.033Z,83.32
2023-01-28T19:22:00.850Z,83.24
2023-01-28T19:24:09.573Z,83.97
2023-01-28T19:26:11.000Z,84.32
2023-01-28T19:28:12.728Z,84.20
2023-01-28T19:30:14.582Z,84.44
2023-01-28T19:32:19.570Z,84.47
2023-01-28T19:34:21.437Z,84.50
2023-01-28T19:36:25.955Z,85.17
2023-01-28T19:38:27.982Z,85.07
2023-01-28T19:40:30.738Z,84.59
2023-01-28T19:42:32.121Z,84.57
2023-01-28T19:47:02.239Z,84.52
2023-01-28T19:49:06.184Z,84.82
2023-01-28T19:51:08.813Z,84.60
2023-01-28T19:53:10.335Z,85.47
2023-01-28T19:55:12.933Z,84.30
2023-01-28T19:57:14.935Z,84.78
2023-01-28T19:59:17.055Z,84.19
2023-01-28T20:01:21.251Z,84.81
2023-01-28T20:03:22.644Z,84.56
2023-01-28T20:05:24.070Z,84.86
2023-01-28T20:07:25.419Z,85.76
2023-01-28T20:09:27.213Z,86.21
2023-01-28T20:11:29.088Z,86.73
2023-01-28T20:13:32.585Z,87.07
2023-01-28T20:15:34.440Z,86.32
2023-01-28T20:17:36.595Z,85.89
2023-01-28T20:19:38.381Z,85.86
2023-01-28T20:21:40.594Z,86.15
2023-01-28T20:23:42.378Z,85.73
2023-01-28T20:25:44.195Z,85.30
2023-01-28T20:27:48.208Z,84.90
2023-01-28T20:29:49.865Z,85.02
2023-01-28T20:32:09.321Z,85.30
2023-01-28T20:34:16.320Z,85.67
2023-01-28T20:36:18.108Z,85.48
2023-01-28T20:38:20.260Z,85.64
2023-01-28T20:40:21.642Z,85.38
2023-01-28T20:42:23.684Z,85.14
2023-01-28T20:44:26.593Z,85.45
2023-01-28T20:46:33.273Z,85.53
2023-01-28T20:48:35.089Z,85.52
2023-01-28T20:50:36.487Z,85.96
2023-01-28T20:52:37.900Z,85.96
2023-01-28T20:54:39.307Z,85.96
2023-01-28T20:56:41.025Z,85.70
2023-01-28T20:58:44.094Z,86.63
2023-01-28T21:00:46.638Z,86.21
2023-01-28T21:02:48.062Z,86.15
2023-01-28T21:04:49.731Z,86.13
2023-01-28T21:06:51.160Z,85.79
2023-01-28T21:08:53.133Z,85.62
2023-01-28T21:10:54.978Z,86.75
2023-01-28T21:12:56.943Z,87.05
2023-01-28T21:14:58.713Z,86.26
2023-01-28T21:17:00.788Z,87.36
2023-01-28T21:19:02.298Z,87.62
2023-01-28T21:21:05.981Z,87.14
2023-01-28T21:23:07.373Z,86.87
2023-01-28T21:25:09.093Z,87.11
2023-01-28T21:27:10.542Z,87.34
2023-01-28T21:29:14.535Z,87.08
2023-01-28T21:31:18.477Z,87.80
2023-01-28T21:33:19.874Z,87.28
2023-01-28T21:35:21.307Z,87.24
2023-01-28T21:37:22.723Z,86.85
2023-01-28T21:41:49.575Z,86.90
2023-01-28T21:43:53.753Z,86.82
2023-01-28T21:45:56.212Z,88.30
2023-01-28T21:47:57.924Z,88.02
2023-01-28T21:50:00.651Z,87.20
2023-01-28T21:52:02.093Z,87.17
2023-01-28T21:54:06.209Z,87.50
2023-01-28T21:56:09.864Z,87.18
2023-01-28T21:58:30.029Z,86.83
2023-01-28T22:00:31.411Z,86.36
2023-01-28T22:02:33.191Z,87.31
2023-01-28T22:04:40.732Z,87.12
2023-01-28T22:06:42.949Z,86.61
2023-01-28T22:08:45.133Z,87.10
2023-01-28T22:10:46.467Z,88.32
2023-01-28T22:12:48.527Z,88.25
2023-01-28T22:14:50.280Z,88.77
2023-01-28T22:16:51.885Z,88.13
2023-01-28T22:18:53.499Z,88.13
2023-01-28T22:21:03.661Z,87.56
2023-01-28T22:23:05.387Z,87.42
2023-01-28T22:25:07.373Z,86.58
2023-01-28T22:27:09.498Z,86.93
2023-01-28T22:29:12.300Z,87.09
2023-01-28T22:31:15.991Z,86.47
2023-01-28T22:33:17.896Z,86.61
2023-01-28T22:35:19.776Z,87.60
2023-01-28T22:37:21.522Z,87.26
2023-01-28T22:39:22.995Z,86.72
2023-01-28T22:41:24.478Z,87.31
2023-01-28T22:43:26.491Z,87.73
2023-01-28T22:45:28.165Z,87.38
2023-01-28T22:47:29.555Z,87.22
2023-01-28T22:49:31.507Z,87.50
2023-01-28T22:51:35.108Z,86.61
2023-01-28T22:53:36.536Z,87.14
2023-01-28T22:55:40.043Z,87.71
2023-01-28T22:57:41.496Z,87.31
2023-01-28T22:59:51.193Z,87.65
2023-01-28T23:01:59.985Z,86.64
2023-01-28T23:04:01.576Z,86.50
2023-01-28T23:06:04.860Z,87.36
2023-01-28T23:08:12.834Z,87.03
2023-01-28T23:10:14.868Z,87.32
2023-01-28T23:12:16.860Z,87.04
2023-01-28T23:14:36.797Z,86.81
2023-01-28T23:16:57.172Z,87.73
2023-01-28T23:19:17.028Z,86.93
2023-01-28T23:21:38.493Z,87.38
2023-01-28T23:23:58.252Z,88.31
2023-01-28T23:26:00.167Z,88.53
2023-01-28T23:28:01.604Z,89.29
2023-01-28T23:30:04.254Z,87.88
2023-01-28T23:32:12.247Z,87.82
2023-01-28T23:34:16.156Z,88.62
2023-01-28T23:36:18.683Z,88.21
2023-01-28T23:38:20.280Z,88.07
2023-01-28T23:40:24.518Z,88.82
2023-01-28T23:42:25.958Z,87.47
2023-01-28T23:44:28.118Z,88.16
2023-01-28T23:46:38.923Z,87.02
2023-01-28T23:48:41.030Z,87.63
2023-01-28T23:50:42.442Z,88.06
2023-01-28T23:52:43.824Z,87.52
2023-01-28T23:54:45.330Z,87.64
2023-01-28T23:56:46.742Z,86.73
2023-01-28T23:58:48.190Z,86.53
